createdAt,value
2019-02-24T00:01:49.633Z,11.17
2019-02-24T00:04:18.707Z,10.07
2019-02-24T00:06:47.827Z,9.77
2019-02-24T00:09:16.967Z,10.43
2019-02-24T00:11:46.049Z,8.93
2019-02-24T00:14:15.048Z,9.00
2019-02-24T00:16:44.281Z,9.10
2019-02-24T00:19:13.351Z,9.10
2019-02-24T00:21:42.413Z,9.40
2019-02-24T00:24:11.671Z,8.40
2019-02-24T00:26:40.654Z,9.10
2019-02-24T00:29:09.732Z,9.00
2019-02-24T00:31:39.052Z,9.50
2019-02-24T00:34:08.049Z,8.63
2019-02-24T00:36:37.167Z,10.03
2019-02-24T00:39:06.846Z,8.80
2019-02-24T00:41:35.920Z,9.23
2019-02-24T00:44:05.065Z,8.30
2019-02-24T00:46:34.542Z,8.93
2019-02-24T00:49:04.132Z,9.13
2019-02-24T00:51:33.220Z,10.00
2019-02-24T00:54:02.468Z,9.53
2019-02-24T00:56:31.556Z,9.67
2019-02-24T00:59:00.559Z,9.23
2019-02-24T01:01:29.742Z,9.67
2019-02-24T01:03:58.680Z,9.60
2019-02-24T01:06:27.744Z,9.07
2019-02-24T01:08:57.010Z,9.87
2019-02-24T01:11:26.058Z,9.60
2019-02-24T01:13:55.189Z,8.90
2019-02-24T01:16:24.502Z,8.73
2019-02-24T01:18:53.426Z,9.97
2019-02-24T01:21:22.472Z,10.13
2019-02-24T01:23:52.091Z,9.50
2019-02-24T01:26:21.130Z,9.63
2019-02-24T01:28:50.186Z,8.93
2019-02-24T01:31:19.493Z,9.40
2019-02-24T01:33:48.651Z,9.10
2019-02-24T01:36:17.718Z,9.37
2019-02-24T01:38:50.224Z,9.13
2019-02-24T01:41:19.273Z,8.87
2019-02-24T01:43:48.580Z,9.33
2019-02-24T01:46:19.456Z,8.90
2019-02-24T01:48:48.665Z,9.33
2019-02-24T01:51:17.697Z,8.97
2019-02-24T01:53:47.100Z,9.03
2019-02-24T01:56:17.658Z,9.33
2019-02-24T01:58:46.731Z,8.73
2019-02-24T02:01:18.248Z,8.80
2019-02-24T02:03:47.336Z,9.17
2019-02-24T02:06:16.441Z,8.73
2019-02-24T02:08:45.656Z,8.80
2019-02-24T02:11:14.697Z,9.20
2019-02-24T02:13:43.695Z,9.10
2019-02-24T02:16:12.941Z,9.00
2019-02-24T02:18:46.626Z,9.57
2019-02-24T02:21:15.897Z,9.37
2019-02-24T02:23:44.981Z,9.77
2019-02-24T02:26:13.982Z,9.37
2019-02-24T02:28:44.174Z,9.10
2019-02-24T02:31:13.378Z,8.73
2019-02-24T02:33:42.480Z,9.17
2019-02-24T02:36:11.740Z,9.00
2019-02-24T02:38:40.740Z,9.47
2019-02-24T02:41:09.826Z,8.83
2019-02-24T02:43:39.029Z,9.87
2019-02-24T02:46:08.108Z,8.90
2019-02-24T02:48:37.094Z,9.53
2019-02-24T02:51:06.314Z,9.80
2019-02-24T02:53:36.013Z,8.70
2019-02-24T02:56:05.114Z,9.67
2019-02-24T02:58:34.216Z,9.27
2019-02-24T03:01:03.318Z,8.87
2019-02-24T03:03:32.386Z,8.60
2019-02-24T03:06:19.208Z,9.07
2019-02-24T03:08:49.778Z,9.70
2019-02-24T03:11:18.905Z,9.87
2019-02-24T03:13:48.136Z,9.83
2019-02-24T03:16:23.055Z,8.73
2019-02-24T03:18:52.489Z,9.63
2019-02-24T03:21:21.558Z,9.17
2019-02-24T03:23:50.487Z,9.37
2019-02-24T03:26:19.754Z,9.73
2019-02-24T03:28:48.665Z,9.27
2019-02-24T03:31:17.738Z,9.03
2019-02-24T03:33:46.945Z,9.50
2019-02-24T03:36:15.950Z,9.13
2019-02-24T03:38:45.012Z,10.00
2019-02-24T03:41:14.219Z,9.43
2019-02-24T03:43:43.359Z,9.67
2019-02-24T03:46:12.461Z,9.67
2019-02-24T03:48:41.731Z,9.63
2019-02-24T03:51:10.774Z,9.37
2019-02-24T03:53:39.861Z,9.60
2019-02-24T03:56:09.217Z,9.70
2019-02-24T03:58:38.291Z,10.20
2019-02-24T04:01:07.271Z,10.20
2019-02-24T04:03:36.491Z,9.77
2019-02-24T04:06:05.517Z,9.73
2019-02-24T04:08:34.689Z,10.37
2019-02-24T04:11:03.914Z,10.07
2019-02-24T04:13:33.033Z,10.40
2019-02-24T04:16:02.074Z,10.37
2019-02-24T04:18:31.274Z,9.93
2019-02-24T04:21:00.433Z,10.20
2019-02-24T04:23:30.599Z,10.33
2019-02-24T04:25:59.721Z,10.00
2019-02-24T04:28:28.769Z,10.67
2019-02-24T04:30:57.879Z,10.87
2019-02-24T04:33:27.166Z,10.60
2019-02-24T04:35:56.196Z,10.87
2019-02-24T04:38:25.199Z,10.50
2019-02-24T04:40:54.482Z,9.70
2019-02-24T04:43:23.492Z,10.00
2019-02-24T04:45:52.504Z,10.07
2019-02-24T04:48:21.846Z,10.90
2019-02-24T04:50:50.932Z,10.07
2019-02-24T04:53:19.999Z,11.07
2019-02-24T04:55:49.136Z,9.83
2019-02-24T04:58:18.072Z,10.10
2019-02-24T05:00:47.171Z,10.17
2019-02-24T05:03:16.418Z,10.00
2019-02-24T05:05:45.349Z,9.30
2019-02-24T05:08:14.391Z,10.37
2019-02-24T05:10:43.709Z,10.07
2019-02-24T05:13:12.773Z,9.63
2019-02-24T05:15:42.925Z,10.17
2019-02-24T05:18:12.208Z,9.60
2019-02-24T05:20:41.288Z,9.27
2019-02-24T05:23:10.387Z,10.00
2019-02-24T05:25:39.712Z,9.63
2019-02-24T05:28:08.727Z,9.80
2019-02-24T05:30:37.809Z,9.80
2019-02-24T05:33:09.505Z,10.33
2019-02-24T05:35:38.634Z,9.93
2019-02-24T05:38:07.875Z,9.17
2019-02-24T05:40:37.306Z,10.23
2019-02-24T05:43:06.483Z,9.97
2019-02-24T05:45:35.546Z,10.57
2019-02-24T05:48:04.959Z,9.90
2019-02-24T05:50:34.221Z,10.27
2019-02-24T05:53:03.403Z,10.20
2019-02-24T05:55:32.637Z,10.70
2019-02-24T05:58:01.841Z,9.80
2019-02-24T06:00:31.056Z,11.47
2019-02-24T06:03:00.481Z,10.30
2019-02-24T06:05:29.469Z,9.77
2019-02-24T06:07:58.558Z,10.10
2019-02-24T06:10:28.149Z,11.23
2019-02-24T06:12:57.053Z,10.67
2019-02-24T06:15:26.155Z,11.00
2019-02-24T06:17:55.432Z,10.77
2019-02-24T06:20:24.745Z,10.07
2019-02-24T06:22:54.042Z,10.73
2019-02-24T06:25:23.328Z,10.17
2019-02-24T06:27:52.534Z,10.57
2019-02-24T06:30:22.979Z,10.50
2019-02-24T06:32:53.402Z,10.97
2019-02-24T06:35:23.698Z,10.93
2019-02-24T06:37:53.008Z,10.70
2019-02-24T06:40:25.181Z,10.77
2019-02-24T06:42:54.266Z,10.73
2019-02-24T06:45:23.688Z,11.97
2019-02-24T06:47:52.856Z,11.63
2019-02-24T06:50:22.149Z,10.83
2019-02-24T06:52:57.038Z,11.37
2019-02-24T06:55:23.485Z,11.03
2019-02-24T06:57:54.803Z,11.63
2019-02-24T07:00:23.952Z,12.00
2019-02-24T07:02:53.108Z,12.50
2019-02-24T07:05:22.474Z,11.93
2019-02-24T07:07:53.231Z,12.80
2019-02-24T07:10:25.380Z,10.70
2019-02-24T07:12:54.469Z,11.87
2019-02-24T07:15:23.531Z,11.13
2019-02-24T07:17:52.969Z,11.50
2019-02-24T07:20:22.039Z,11.77
2019-02-24T07:22:51.193Z,11.83
2019-02-24T07:25:20.365Z,11.60
2019-02-24T07:27:50.227Z,10.80
2019-02-24T07:30:23.410Z,11.67
2019-02-24T07:32:50.199Z,11.57
2019-02-24T07:35:19.267Z,11.70
2019-02-24T07:37:48.327Z,11.97
2019-02-24T07:40:17.589Z,11.47
2019-02-24T07:42:46.710Z,11.87
2019-02-24T07:45:15.921Z,11.97
2019-02-24T07:47:45.291Z,11.10
2019-02-24T07:50:14.367Z,12.27
2019-02-24T07:52:43.392Z,12.73
2019-02-24T07:55:12.670Z,12.00
2019-02-24T07:57:41.651Z,11.20
2019-02-24T08:00:10.818Z,11.83
2019-02-24T08:02:42.942Z,11.73
2019-02-24T08:05:12.018Z,12.53
2019-02-24T08:07:41.169Z,12.67
2019-02-24T08:10:10.522Z,12.20
2019-02-24T08:12:39.512Z,11.70
2019-02-24T08:15:08.769Z,11.40
2019-02-24T08:17:38.122Z,11.93
2019-02-24T08:20:08.034Z,11.10
2019-02-24T08:22:37.120Z,11.50
2019-02-24T08:25:06.535Z,12.57
2019-02-24T08:27:35.650Z,11.67
2019-02-24T08:30:05.269Z,12.03
2019-02-24T08:32:34.468Z,11.70
2019-02-24T08:35:04.141Z,10.97
2019-02-24T08:37:33.224Z,11.70
2019-02-24T08:40:02.544Z,12.30
2019-02-24T08:42:31.708Z,13.10
2019-02-24T08:45:00.801Z,12.23
2019-02-24T08:47:30.034Z,12.47
2019-02-24T08:49:59.024Z,11.20
2019-02-24T08:52:28.203Z,11.17
2019-02-24T08:54:59.465Z,11.83
2019-02-24T08:57:28.813Z,10.73
2019-02-24T08:59:57.935Z,11.30
2019-02-24T09:02:28.853Z,11.77
2019-02-24T09:04:58.021Z,10.77
2019-02-24T09:07:27.015Z,11.10
2019-02-24T09:09:56.188Z,10.47
2019-02-24T09:12:25.289Z,11.10
2019-02-24T09:14:54.371Z,10.93
2019-02-24T09:17:26.519Z,11.00
2019-02-24T09:19:55.624Z,10.60
2019-02-24T09:22:24.929Z,12.20
2019-02-24T09:24:54.035Z,10.27
2019-02-24T09:27:23.115Z,10.43
2019-02-24T09:29:55.040Z,10.77
2019-02-24T09:32:24.190Z,10.37
2019-02-24T09:34:53.279Z,10.23
2019-02-24T09:37:22.487Z,9.63
2019-02-24T09:39:51.817Z,10.03
2019-02-24T09:42:21.576Z,9.70
2019-02-24T09:44:50.789Z,9.97
2019-02-24T09:47:19.862Z,9.23
2019-02-24T09:49:48.860Z,9.30
2019-02-24T09:52:18.176Z,9.33
2019-02-24T09:54:53.529Z,9.67
2019-02-24T09:57:22.866Z,9.50
2019-02-24T09:59:52.022Z,8.73
2019-02-24T10:02:21.104Z,7.87
2019-02-24T10:04:50.122Z,8.47
2019-02-24T10:07:19.200Z,8.57
2019-02-24T10:09:48.205Z,7.53
2019-02-24T10:12:18.094Z,8.20
2019-02-24T10:14:47.170Z,7.80
2019-02-24T10:17:16.225Z,7.67
2019-02-24T10:19:45.367Z,7.80
2019-02-24T10:22:14.359Z,8.03
2019-02-24T10:24:43.454Z,8.47
2019-02-24T10:27:13.102Z,8.13
2019-02-24T10:29:42.156Z,8.43
2019-02-24T10:32:11.318Z,8.47
2019-02-24T10:34:40.688Z,8.13
2019-02-24T10:37:09.684Z,8.20
2019-02-24T10:39:38.742Z,8.50
2019-02-24T10:42:08.065Z,9.17
2019-02-24T10:44:37.140Z,8.23
2019-02-24T10:47:06.278Z,8.77
2019-02-24T10:49:35.636Z,8.50
2019-02-24T10:52:04.687Z,8.13
2019-02-24T10:54:33.757Z,7.97
2019-02-24T10:57:03.064Z,8.77
2019-02-24T10:59:34.915Z,8.80
2019-02-24T11:02:04.308Z,8.13
2019-02-24T11:04:33.375Z,8.90
2019-02-24T11:07:02.519Z,7.60
2019-02-24T11:09:31.913Z,8.13
2019-02-24T11:12:01.155Z,7.27
2019-02-24T11:14:30.298Z,7.57
2019-02-24T11:16:59.713Z,7.10
2019-02-24T11:19:28.715Z,8.23
2019-02-24T11:21:57.786Z,8.10
2019-02-24T11:24:27.209Z,8.40
2019-02-24T11:26:56.297Z,8.87
2019-02-24T11:29:25.399Z,9.20
2019-02-24T11:31:54.695Z,8.50
2019-02-24T11:34:23.779Z,8.67
2019-02-24T11:36:54.468Z,8.50
2019-02-24T11:39:23.819Z,9.37
2019-02-24T11:41:52.953Z,8.83
2019-02-24T11:44:22.038Z,9.00
2019-02-24T11:46:51.322Z,8.70
2019-02-24T11:49:20.475Z,9.30
2019-02-24T11:51:49.472Z,8.90
2019-02-24T11:54:18.891Z,8.67
2019-02-24T11:56:47.952Z,9.70
2019-02-24T11:59:16.906Z,8.50
2019-02-24T12:01:47.808Z,8.33
2019-02-24T12:04:17.158Z,8.30
2019-02-24T12:06:46.231Z,7.50
2019-02-24T12:09:15.414Z,8.13
2019-02-24T12:11:44.498Z,7.80
2019-02-24T12:14:13.506Z,7.23
2019-02-24T12:16:42.768Z,7.23
2019-02-24T12:19:11.834Z,6.87
2019-02-24T12:21:40.848Z,7.07
2019-02-24T12:24:10.091Z,6.90
2019-02-24T12:26:39.076Z,6.50
2019-02-24T12:29:08.015Z,5.93
2019-02-24T12:31:37.280Z,6.07
2019-02-24T12:34:06.357Z,6.30
2019-02-24T12:36:35.355Z,6.37
2019-02-24T12:39:05.818Z,6.60
2019-02-24T12:41:34.897Z,6.00
2019-02-24T12:44:03.967Z,6.53
2019-02-24T12:46:33.071Z,6.30
2019-02-24T12:49:08.151Z,6.53
2019-02-24T12:51:37.621Z,5.73
2019-02-24T12:54:06.715Z,6.13
2019-02-24T12:56:35.833Z,6.03
2019-02-24T12:59:05.207Z,5.27
2019-02-24T13:01:34.355Z,6.00
2019-02-24T13:04:06.809Z,6.00
2019-02-24T13:06:35.775Z,4.60
2019-02-24T13:09:09.222Z,5.17
2019-02-24T13:11:38.294Z,5.63
2019-02-24T13:14:07.472Z,5.47
2019-02-24T13:16:36.761Z,5.40
2019-02-24T13:19:05.869Z,4.87
2019-02-24T13:21:34.936Z,5.40
2019-02-24T13:24:04.273Z,5.43
2019-02-24T13:26:33.354Z,4.87
2019-02-24T13:29:02.428Z,5.27
2019-02-24T13:31:31.747Z,5.20
2019-02-24T13:34:00.809Z,5.30
2019-02-24T13:36:29.811Z,5.37
2019-02-24T13:38:58.924Z,4.70
2019-02-24T13:41:28.102Z,4.33
2019-02-24T13:43:57.173Z,4.73
2019-02-24T13:46:26.530Z,4.53
2019-02-24T13:48:55.708Z,4.80
2019-02-24T13:51:24.773Z,4.93
2019-02-24T13:53:54.029Z,4.87
2019-02-24T13:56:23.018Z,5.30
2019-02-24T13:58:53.291Z,4.90
2019-02-24T14:01:23.104Z,5.03
2019-02-24T14:03:52.222Z,4.83
2019-02-24T14:06:21.357Z,4.73
2019-02-24T14:08:50.732Z,4.80
2019-02-24T14:11:19.792Z,5.27
2019-02-24T14:13:48.880Z,5.47
2019-02-24T14:16:18.116Z,5.67
2019-02-24T14:18:47.170Z,5.07
2019-02-24T14:21:16.180Z,5.27
2019-02-24T14:23:45.606Z,5.43
2019-02-24T14:26:14.608Z,5.83
2019-02-24T14:28:43.627Z,5.83
2019-02-24T14:31:13.386Z,5.47
2019-02-24T14:33:42.413Z,6.10
2019-02-24T14:36:11.534Z,5.63
2019-02-24T14:38:40.825Z,5.93
2019-02-24T14:41:09.919Z,6.30
2019-02-24T14:43:38.973Z,6.07
2019-02-24T14:46:09.515Z,6.53
2019-02-24T14:48:38.590Z,6.53
2019-02-24T14:51:07.758Z,6.40
2019-02-24T14:53:37.011Z,7.23
2019-02-24T14:56:06.121Z,7.30
2019-02-24T14:58:35.277Z,6.80
2019-02-24T15:01:04.501Z,6.00
2019-02-24T15:03:33.478Z,6.07
2019-02-24T15:06:02.547Z,5.90
2019-02-24T15:08:31.794Z,5.70
2019-02-24T15:11:01.335Z,6.07
2019-02-24T15:13:30.426Z,6.70
2019-02-24T15:15:59.695Z,7.20
2019-02-24T15:18:28.820Z,7.03
2019-02-24T15:20:57.809Z,7.07
2019-02-24T15:23:27.175Z,8.07
2019-02-24T15:25:56.269Z,8.87
2019-02-24T15:28:26.187Z,9.57
2019-02-24T15:30:55.508Z,9.70
2019-02-24T15:33:24.627Z,8.60
2019-02-24T15:35:53.707Z,8.10
2019-02-24T15:38:23.180Z,7.27
2019-02-24T15:40:52.285Z,8.13
2019-02-24T15:43:21.451Z,8.27
2019-02-24T15:45:50.523Z,8.73
2019-02-24T15:48:19.582Z,8.33
2019-02-24T15:50:48.719Z,8.50
2019-02-24T15:53:18.059Z,8.17
2019-02-24T15:55:47.083Z,9.27
2019-02-24T15:58:17.809Z,8.90
2019-02-24T16:00:48.273Z,9.10
2019-02-24T16:03:17.390Z,9.80
2019-02-24T16:05:46.612Z,9.77
2019-02-24T16:08:15.890Z,10.17
2019-02-24T16:10:44.948Z,9.87
2019-02-24T16:13:17.057Z,9.63
2019-02-24T16:15:45.147Z,10.70
2019-02-24T16:18:14.225Z,9.63
2019-02-24T16:20:43.308Z,9.40
2019-02-24T16:23:12.631Z,10.23
2019-02-24T16:25:41.614Z,9.47
2019-02-24T16:28:10.834Z,11.07
2019-02-24T16:30:40.215Z,11.27
2019-02-24T16:33:10.757Z,10.97
2019-02-24T16:35:40.249Z,10.97
2019-02-24T16:38:09.454Z,10.83
2019-02-24T16:40:38.548Z,10.27
2019-02-24T16:43:07.766Z,9.67
2019-02-24T16:45:37.265Z,11.17
2019-02-24T16:48:06.442Z,10.87
2019-02-24T16:50:35.571Z,11.10
2019-02-24T16:53:04.861Z,10.87
2019-02-24T17:53:05.056Z,15.10
2019-02-24T17:55:34.216Z,15.83
2019-02-24T17:58:03.340Z,18.07
2019-02-24T18:00:33.989Z,15.87
2019-02-24T18:03:03.155Z,16.97
2019-02-24T18:05:32.245Z,17.10
2019-02-24T18:08:01.421Z,15.53
2019-02-24T18:10:30.694Z,14.33
2019-02-24T18:13:00.043Z,15.17
2019-02-24T18:15:31.742Z,14.90
2019-02-24T18:18:01.051Z,14.83
2019-02-24T18:20:30.475Z,15.10
2019-02-24T18:22:59.842Z,13.93
2019-02-24T18:25:29.317Z,14.57
2019-02-24T18:27:58.479Z,14.03
2019-02-24T18:30:27.720Z,14.07
2019-02-24T18:32:56.810Z,14.50
2019-02-24T18:35:26.015Z,13.37
2019-02-24T18:37:55.875Z,13.43
2019-02-24T18:40:24.989Z,13.43
2019-02-24T18:43:00.291Z,13.20
2019-02-24T18:45:25.177Z,13.93
2019-02-24T18:47:54.254Z,13.47
2019-02-24T18:50:23.380Z,13.47
2019-02-24T18:52:52.668Z,11.77
2019-02-24T18:55:21.730Z,13.13
2019-02-24T18:57:50.819Z,12.77
2019-02-24T19:00:20.215Z,13.47
2019-02-24T19:02:49.295Z,13.40
2019-02-24T19:05:18.358Z,13.67
2019-02-24T19:07:47.659Z,13.53
2019-02-24T19:10:16.854Z,13.20
2019-02-24T19:12:45.994Z,13.03
2019-02-24T19:15:16.801Z,13.80
2019-02-24T19:17:45.954Z,12.87
2019-02-24T19:20:16.761Z,13.70
2019-02-24T19:22:46.350Z,12.80
2019-02-24T19:25:15.474Z,12.57
2019-02-24T19:27:49.082Z,12.80
2019-02-24T19:30:18.451Z,11.83
2019-02-24T19:32:47.856Z,12.13
2019-02-24T19:35:17.350Z,12.30
2019-02-24T19:37:46.558Z,11.73
2019-02-24T19:40:16.568Z,11.17
2019-02-24T19:42:47.050Z,11.03
2019-02-24T19:45:16.886Z,11.17
2019-02-24T19:47:46.008Z,11.77
2019-02-24T19:50:16.629Z,12.17
2019-02-24T19:52:45.844Z,12.07
2019-02-24T19:55:15.127Z,11.17
2019-02-24T19:57:44.639Z,11.87
2019-02-24T20:00:19.247Z,11.70
2019-02-24T20:02:48.622Z,12.13
2019-02-24T20:05:17.727Z,12.47
2019-02-24T20:07:46.814Z,11.43
2019-02-24T20:10:17.965Z,11.50
2019-02-24T20:12:47.033Z,11.90
2019-02-24T20:15:16.135Z,12.00
2019-02-24T20:17:45.551Z,11.20
2019-02-24T20:20:15.077Z,12.63
2019-02-24T20:22:44.133Z,12.97
2019-02-24T20:25:13.681Z,12.20
2019-02-24T20:27:42.876Z,11.93
2019-02-24T20:30:15.147Z,12.20
2019-02-24T20:32:44.466Z,12.87
2019-02-24T20:35:13.526Z,11.83
2019-02-24T20:37:43.023Z,11.33
2019-02-24T20:40:12.167Z,12.13
2019-02-24T20:42:41.264Z,12.27
2019-02-24T20:45:11.692Z,11.57
2019-02-24T20:47:40.788Z,12.87
2019-02-24T20:50:10.860Z,12.37
2019-02-24T20:52:40.254Z,11.73
2019-02-24T20:55:09.778Z,11.90
2019-02-24T20:57:38.932Z,13.73
2019-02-24T21:00:17.889Z,13.60
2019-02-24T21:02:47.043Z,12.77
2019-02-24T21:05:16.126Z,13.10
2019-02-24T21:07:45.396Z,14.83
2019-02-24T21:10:14.479Z,14.63
2019-02-24T21:12:43.561Z,15.90
2019-02-24T21:15:13.172Z,14.00
2019-02-24T21:17:42.406Z,13.40
2019-02-24T21:20:14.554Z,13.07
2019-02-24T21:22:43.626Z,14.43
2019-02-24T21:25:12.708Z,14.00
2019-02-24T21:27:42.051Z,14.30
2019-02-24T21:30:13.487Z,13.57
2019-02-24T21:32:42.654Z,13.47
2019-02-24T21:35:12.056Z,12.47
2019-02-24T21:37:41.152Z,12.97
2019-02-24T21:40:10.876Z,12.93
2019-02-24T21:42:40.006Z,12.30
2019-02-24T21:45:11.587Z,11.87
2019-02-24T21:47:40.667Z,12.33
2019-02-24T21:50:10.874Z,12.57
2019-02-24T21:52:39.944Z,13.30
2019-02-24T21:55:09.475Z,16.10
2019-02-24T21:57:38.860Z,15.73
2019-02-24T22:00:11.620Z,15.83
2019-02-24T22:02:41.152Z,14.67
2019-02-24T22:05:10.327Z,14.33
2019-02-24T22:07:39.491Z,13.00
2019-02-24T22:10:09.557Z,13.40
2019-02-24T22:12:38.614Z,13.57
2019-02-24T22:15:09.868Z,13.43
2019-02-24T22:17:38.970Z,13.30
2019-02-24T22:20:08.736Z,13.43
2019-02-24T22:22:37.807Z,12.70
2019-02-24T22:25:07.017Z,12.83
2019-02-24T22:27:36.070Z,13.10
2019-02-24T22:30:05.701Z,12.70
2019-02-24T22:32:34.696Z,13.07
2019-02-24T22:35:04.111Z,13.03
2019-02-24T22:37:33.339Z,13.23
2019-02-24T22:40:02.453Z,13.73
2019-02-24T22:42:31.550Z,13.43
2019-02-24T22:45:00.769Z,13.33
2019-02-24T22:47:29.850Z,13.20
2019-02-24T22:49:58.925Z,13.40
2019-02-24T22:52:28.277Z,13.17
2019-02-24T22:54:57.415Z,13.60
2019-02-24T22:57:26.483Z,14.13
2019-02-24T22:59:55.819Z,12.87
2019-02-24T23:02:24.878Z,12.90
2019-02-24T23:04:54.029Z,13.80
2019-02-24T23:07:23.349Z,13.37
2019-02-24T23:09:54.477Z,13.33
2019-02-24T23:12:23.551Z,13.17
2019-02-24T23:14:54.538Z,12.67
2019-02-24T23:17:23.626Z,13.17
2019-02-24T23:19:52.607Z,12.83
2019-02-24T23:22:21.829Z,13.40
2019-02-24T23:24:50.882Z,13.77
2019-02-24T23:27:19.814Z,13.17
2019-02-24T23:29:49.113Z,13.47
2019-02-24T23:32:18.130Z,12.87
2019-02-24T23:34:47.187Z,12.57
2019-02-24T23:37:16.482Z,13.50
2019-02-24T23:39:45.538Z,12.97
2019-02-24T23:42:14.618Z,13.37
2019-02-24T23:44:43.888Z,12.57
2019-02-24T23:47:13.028Z,13.67
2019-02-24T23:49:42.143Z,13.53
2019-02-24T23:52:11.474Z,13.37
2019-02-24T23:54:41.496Z,13.83
2019-02-24T23:57:10.743Z,13.60
2019-02-24T23:59:39.995Z,13.07
